createdAt,value
2022-12-05T00:01:18.578Z,11.00
2022-12-05T00:03:46.320Z,11.00
2022-12-05T00:06:13.067Z,11.50
2022-12-05T00:08:41.429Z,10.00
2022-12-05T00:11:13.635Z,11.25
2022-12-05T00:13:41.191Z,12.00
2022-12-05T00:16:09.854Z,10.50
2022-12-05T00:18:37.239Z,11.50
2022-12-05T00:21:06.625Z,8.75
2022-12-05T00:23:33.672Z,11.75
2022-12-05T00:26:04.621Z,11.75
2022-12-05T00:28:32.371Z,13.25
2022-12-05T00:31:02.922Z,8.75
2022-12-05T00:33:29.849Z,10.00
2022-12-05T00:36:02.575Z,10.00
2022-12-05T00:38:29.421Z,12.50
2022-12-05T00:40:56.218Z,11.50
2022-12-05T00:43:24.664Z,11.50
2022-12-05T00:45:51.455Z,12.75
2022-12-05T00:48:18.346Z,14.25
2022-12-05T00:50:45.294Z,13.00
2022-12-05T00:53:12.048Z,15.00
2022-12-05T00:55:38.859Z,12.75
2022-12-05T00:58:05.638Z,11.00
2022-12-05T01:00:34.012Z,12.50
2022-12-05T01:03:01.137Z,10.75
2022-12-05T01:05:27.925Z,10.75
2022-12-05T01:07:54.824Z,11.00
2022-12-05T01:10:21.613Z,11.25
2022-12-05T01:12:48.593Z,10.50
2022-12-05T01:15:15.372Z,12.00
2022-12-05T01:17:43.772Z,12.50
2022-12-05T01:20:11.454Z,8.25
2022-12-05T01:22:38.339Z,12.00
2022-12-05T01:25:06.646Z,11.75
2022-12-05T01:27:33.432Z,12.50
2022-12-05T01:30:00.315Z,9.25
2022-12-05T01:32:27.286Z,15.00
2022-12-05T01:34:56.083Z,13.00
2022-12-05T01:37:23.087Z,14.50
2022-12-05T01:39:49.876Z,8.50
2022-12-05T01:42:20.541Z,14.50
2022-12-05T01:45:13.620Z,17.25
2022-12-05T01:47:41.980Z,15.00
2022-12-05T01:50:12.637Z,15.25
2022-12-05T01:52:40.682Z,11.25
2022-12-05T01:55:14.417Z,17.00
2022-12-05T01:57:42.055Z,15.50
2022-12-05T02:00:13.676Z,16.25
2022-12-05T02:02:46.584Z,15.75
2022-12-05T02:05:21.121Z,15.50
2022-12-05T02:07:48.571Z,15.00
2022-12-05T02:10:15.819Z,13.50
2022-12-05T02:12:45.048Z,12.75
2022-12-05T02:15:35.132Z,16.75
2022-12-05T02:18:23.586Z,15.75
2022-12-05T02:21:22.556Z,15.25
2022-12-05T02:24:27.633Z,15.00
2022-12-05T02:27:27.485Z,12.25
2022-12-05T02:30:07.071Z,16.75
2022-12-05T02:33:07.440Z,14.00
2022-12-05T02:35:47.054Z,11.00
2022-12-05T02:38:28.046Z,16.00
2022-12-05T02:41:11.822Z,13.50
2022-12-05T02:43:47.040Z,10.75
2022-12-05T02:46:22.074Z,13.00
2022-12-05T02:48:56.286Z,14.75
2022-12-05T02:51:29.166Z,16.00
2022-12-05T02:54:02.525Z,15.50
2022-12-05T02:56:33.135Z,15.75
2022-12-05T02:59:01.488Z,14.50
2022-12-05T03:01:32.389Z,14.25
2022-12-05T03:04:04.106Z,13.00
2022-12-05T03:06:36.760Z,16.67
2022-12-05T03:09:08.785Z,12.00
2022-12-05T03:11:42.308Z,14.00
2022-12-05T03:14:19.084Z,15.00
2022-12-05T03:16:51.535Z,16.00
2022-12-05T03:19:26.208Z,11.75
2022-12-05T03:22:01.037Z,15.00
2022-12-05T03:24:30.415Z,13.00
2022-12-05T03:27:11.012Z,19.00
2022-12-05T03:29:49.111Z,15.75
2022-12-05T03:32:27.297Z,9.75
2022-12-05T03:35:06.548Z,15.00
2022-12-05T03:37:46.547Z,17.00
2022-12-05T03:40:31.633Z,12.00
2022-12-05T03:43:08.318Z,16.00
2022-12-05T03:45:44.843Z,10.00
2022-12-05T03:48:25.763Z,14.25
2022-12-05T03:50:54.101Z,14.00
2022-12-05T03:53:28.159Z,14.00
2022-12-05T03:56:05.265Z,13.75
2022-12-05T03:58:43.278Z,14.00
2022-12-05T04:01:16.045Z,13.50
2022-12-05T04:03:50.572Z,13.25
2022-12-05T04:06:26.656Z,14.00
2022-12-05T04:08:59.309Z,14.00
2022-12-05T04:11:33.058Z,14.50
2022-12-05T04:14:08.537Z,13.25
2022-12-05T04:16:42.744Z,13.25
2022-12-05T04:19:19.151Z,15.75
2022-12-05T04:21:54.428Z,14.75
2022-12-05T04:24:26.811Z,13.50
2022-12-05T04:27:10.150Z,15.00
2022-12-05T04:29:50.680Z,14.00
2022-12-05T04:32:25.815Z,14.25
2022-12-05T04:35:05.600Z,12.50
2022-12-05T04:37:38.325Z,13.75
2022-12-05T04:40:17.863Z,14.75
2022-12-05T04:42:48.678Z,14.00
2022-12-05T04:45:20.463Z,14.00
2022-12-05T04:47:54.632Z,12.00
2022-12-05T04:50:26.705Z,12.00
2022-12-05T04:52:59.176Z,12.25
2022-12-05T04:55:27.144Z,12.00
2022-12-05T04:58:06.121Z,14.00
2022-12-05T05:00:45.532Z,12.75
2022-12-05T05:03:19.518Z,13.75
2022-12-05T05:05:54.251Z,13.00
2022-12-05T05:08:25.469Z,16.75
2022-12-05T05:11:07.798Z,10.75
2022-12-05T05:13:34.906Z,13.50
2022-12-05T05:16:01.722Z,13.75
2022-12-05T05:18:28.591Z,16.25
2022-12-05T05:20:57.432Z,19.25
2022-12-05T05:23:24.194Z,15.50
2022-12-05T05:25:55.555Z,13.75
2022-12-05T05:28:23.315Z,18.00
2022-12-05T05:30:50.123Z,16.25
2022-12-05T05:33:16.930Z,14.25
2022-12-05T05:35:43.700Z,15.50
2022-12-05T05:38:12.411Z,16.00
2022-12-05T05:40:39.166Z,14.25
2022-12-05T05:43:06.226Z,16.50
2022-12-05T05:45:33.017Z,14.50
2022-12-05T05:48:00.295Z,15.75
2022-12-05T05:50:27.169Z,16.25
2022-12-05T05:52:54.945Z,15.00
2022-12-05T05:55:23.038Z,13.75
2022-12-05T05:57:49.991Z,16.50
2022-12-05T06:00:18.009Z,15.00
2022-12-05T06:02:44.954Z,14.25
2022-12-05T06:05:11.886Z,14.00
2022-12-05T06:07:39.235Z,14.00
2022-12-05T06:10:07.802Z,16.75
2022-12-05T06:12:35.923Z,22.00
2022-12-05T06:15:04.031Z,22.00
2022-12-05T06:17:30.988Z,18.75
2022-12-05T06:19:58.090Z,22.50
2022-12-05T06:22:25.760Z,19.75
2022-12-05T06:24:53.886Z,19.25
2022-12-05T06:27:21.127Z,17.75
2022-12-05T06:29:49.382Z,12.75
2022-12-05T06:32:16.726Z,11.50
2022-12-05T06:34:43.443Z,12.00
2022-12-05T06:37:10.289Z,12.75
2022-12-05T06:39:37.471Z,11.75
2022-12-05T06:42:04.873Z,13.75
2022-12-05T06:44:32.025Z,13.25
2022-12-05T06:47:00.374Z,12.25
2022-12-05T06:49:31.622Z,12.25
2022-12-05T06:52:00.583Z,12.00
2022-12-05T06:54:27.501Z,8.00
2022-12-05T06:56:54.523Z,13.75
2022-12-05T06:59:21.391Z,13.25
2022-12-05T07:01:48.620Z,14.25
2022-12-05T07:04:19.750Z,13.50
2022-12-05T07:06:50.796Z,15.00
2022-12-05T07:09:20.207Z,12.00
2022-12-05T07:11:48.327Z,15.50
2022-12-05T07:14:39.008Z,13.00
2022-12-05T07:17:02.328Z,12.75
2022-12-05T07:19:30.809Z,12.00
2022-12-05T07:21:57.626Z,14.50
2022-12-05T07:24:24.411Z,12.00
2022-12-05T07:26:51.256Z,12.50
2022-12-05T07:29:18.317Z,13.00
2022-12-05T07:31:45.388Z,13.50
2022-12-05T07:34:12.447Z,14.50
2022-12-05T07:36:40.846Z,16.25
2022-12-05T07:39:07.830Z,14.25
2022-12-05T07:41:34.844Z,15.50
2022-12-05T07:44:06.567Z,13.00
2022-12-05T07:46:33.362Z,13.50
2022-12-05T07:49:00.117Z,9.75
2022-12-05T07:51:27.100Z,16.75
2022-12-05T07:53:55.588Z,16.00
2022-12-05T07:56:22.569Z,14.25
2022-12-05T07:58:50.847Z,16.00
2022-12-05T08:01:20.849Z,17.25
2022-12-05T08:03:48.747Z,15.00
2022-12-05T08:06:20.089Z,18.00
2022-12-05T08:08:48.252Z,12.75
2022-12-05T08:11:20.037Z,14.75
2022-12-05T08:13:48.445Z,14.75
2022-12-05T08:16:18.738Z,13.00
2022-12-05T08:18:46.484Z,13.25
2022-12-05T08:21:16.288Z,15.00
2022-12-05T08:23:44.869Z,13.75
2022-12-05T08:26:17.496Z,15.50
2022-12-05T08:28:44.988Z,14.00
2022-12-05T08:31:14.753Z,20.50
2022-12-05T08:33:42.544Z,18.25
2022-12-05T08:36:12.309Z,15.00
2022-12-05T08:38:39.876Z,15.00
2022-12-05T08:41:09.917Z,16.25
2022-12-05T08:43:38.676Z,12.75
2022-12-05T08:46:06.712Z,17.25
2022-12-05T08:48:35.606Z,14.75
2022-12-05T08:51:06.179Z,16.25
2022-12-05T08:53:35.081Z,15.75
2022-12-05T08:56:07.107Z,15.00
2022-12-05T08:58:34.504Z,11.75
2022-12-05T09:01:07.293Z,16.00
2022-12-05T09:03:34.527Z,15.00
2022-12-05T09:06:11.138Z,14.25
2022-12-05T09:08:39.165Z,17.00
2022-12-05T09:11:07.193Z,16.00
2022-12-05T09:13:35.372Z,15.50
2022-12-05T09:16:07.944Z,20.00
2022-12-05T09:18:35.470Z,19.75
2022-12-05T09:21:06.377Z,19.75
2022-12-05T09:23:33.279Z,16.50
2022-12-05T09:26:00.271Z,24.67
2022-12-05T09:28:27.331Z,22.25
2022-12-05T09:30:58.148Z,20.25
2022-12-05T09:33:26.284Z,15.25
2022-12-05T09:35:53.125Z,17.50
2022-12-05T09:38:19.977Z,18.25
2022-12-05T09:40:58.987Z,19.00
2022-12-05T09:43:37.001Z,19.25
2022-12-05T09:46:17.958Z,13.25
2022-12-05T09:48:47.786Z,14.50
2022-12-05T09:51:15.178Z,18.00
2022-12-05T09:53:44.991Z,16.75
2022-12-05T09:56:23.641Z,19.25
2022-12-05T09:58:53.159Z,16.50
2022-12-05T10:01:36.664Z,17.00
2022-12-05T10:04:27.438Z,14.00
2022-12-05T10:07:07.005Z,18.00
2022-12-05T10:09:59.344Z,17.50
2022-12-05T10:12:56.177Z,17.50
2022-12-05T10:15:33.848Z,16.50
2022-12-05T10:18:09.929Z,19.75
2022-12-05T10:20:47.781Z,17.00
2022-12-05T10:23:49.323Z,18.00
2022-12-05T10:26:16.406Z,16.25
2022-12-05T10:28:53.400Z,20.00
2022-12-05T10:31:30.189Z,16.75
2022-12-05T10:34:08.989Z,18.25
2022-12-05T10:36:37.130Z,21.75
2022-12-05T10:39:09.924Z,22.50
2022-12-05T10:41:38.671Z,21.75
2022-12-05T10:44:05.863Z,22.00
2022-12-05T10:46:33.247Z,19.25
2022-12-05T10:49:00.081Z,19.25
2022-12-05T10:51:34.049Z,20.75
2022-12-05T10:54:19.788Z,16.25
2022-12-05T10:56:49.639Z,21.00
2022-12-05T10:59:19.876Z,21.50
2022-12-05T11:01:51.482Z,17.50
2022-12-05T11:04:30.302Z,17.00
2022-12-05T11:07:01.240Z,18.00
2022-12-05T11:09:33.010Z,16.25
2022-12-05T11:12:19.284Z,17.25
2022-12-05T11:15:03.363Z,16.50
2022-12-05T11:17:35.016Z,20.50
2022-12-05T11:20:03.719Z,22.50
2022-12-05T11:22:34.117Z,20.50
2022-12-05T11:25:25.323Z,18.75
2022-12-05T11:27:54.197Z,13.00
2022-12-05T11:30:26.318Z,18.50
2022-12-05T11:33:12.402Z,18.50
2022-12-05T11:35:40.175Z,20.00
2022-12-05T11:38:11.138Z,20.25
2022-12-05T11:40:52.875Z,19.25
2022-12-05T11:43:48.332Z,7.75
2022-12-05T11:46:34.096Z,18.25
2022-12-05T11:49:27.664Z,19.00
2022-12-05T11:52:16.101Z,18.50
2022-12-05T11:55:05.005Z,17.25
2022-12-05T11:58:03.385Z,23.75
2022-12-05T12:00:45.209Z,23.75
2022-12-05T12:03:42.547Z,21.00
2022-12-05T12:06:28.352Z,18.50
2022-12-05T12:09:30.334Z,17.25
2022-12-05T12:12:12.799Z,17.50
2022-12-05T12:14:53.406Z,20.25
2022-12-05T12:17:34.969Z,14.50
2022-12-05T12:20:30.949Z,20.00
2022-12-05T12:23:22.935Z,20.25
2022-12-05T12:26:10.031Z,18.00
2022-12-05T12:28:46.010Z,18.25
2022-12-05T12:32:02.798Z,20.00
2022-12-05T12:35:03.423Z,20.00
2022-12-05T12:37:43.391Z,20.00
2022-12-05T12:40:20.718Z,21.25
2022-12-05T12:43:07.398Z,24.00
2022-12-05T12:45:59.650Z,16.25
2022-12-05T12:48:52.863Z,16.75
2022-12-05T12:51:20.115Z,7.75
2022-12-05T12:54:10.162Z,16.00
2022-12-05T12:56:52.347Z,16.00
2022-12-05T12:59:44.708Z,20.00
2022-12-05T13:02:22.638Z,15.50
2022-12-05T13:04:58.958Z,15.25
2022-12-05T13:07:38.833Z,14.50
2022-12-05T13:10:20.189Z,14.50
2022-12-05T13:12:48.647Z,15.50
2022-12-05T13:15:24.085Z,17.00
2022-12-05T13:17:54.399Z,16.25
2022-12-05T13:20:30.535Z,16.00
2022-12-05T13:22:59.187Z,16.50
2022-12-05T13:25:35.224Z,15.75
2022-12-05T13:28:09.730Z,13.25
2022-12-05T13:30:36.638Z,13.00
2022-12-05T13:33:09.965Z,14.00
2022-12-05T13:35:40.040Z,16.25
2022-12-05T13:38:21.710Z,14.75
2022-12-05T13:40:53.365Z,12.00
2022-12-05T13:43:25.338Z,13.00
2022-12-05T13:46:06.774Z,13.25
2022-12-05T13:48:39.098Z,10.25
2022-12-05T13:51:14.246Z,8.00
2022-12-05T13:53:45.282Z,13.75
2022-12-05T13:56:27.956Z,12.00
2022-12-05T13:58:56.987Z,8.00
2022-12-05T14:01:53.732Z,12.00
2022-12-05T14:04:46.828Z,13.75
2022-12-05T14:07:41.305Z,13.75
2022-12-05T14:10:11.312Z,11.50
2022-12-05T14:12:56.454Z,11.50
2022-12-05T14:15:33.967Z,14.00
2022-12-05T14:18:10.998Z,11.25
2022-12-05T14:21:07.700Z,12.50
2022-12-05T14:24:02.703Z,11.00
2022-12-05T14:27:02.456Z,14.00
2022-12-05T14:29:39.652Z,14.25
2022-12-05T14:32:22.396Z,16.00
2022-12-05T14:35:03.833Z,16.00
2022-12-05T14:37:35.684Z,16.25
2022-12-05T14:40:20.854Z,14.25
2022-12-05T14:42:56.687Z,13.75
2022-12-05T14:45:31.923Z,12.50
2022-12-05T14:48:01.836Z,14.25
2022-12-05T14:50:44.552Z,12.25
2022-12-05T14:53:24.672Z,17.00
2022-12-05T14:56:03.323Z,15.75
2022-12-05T14:58:40.444Z,18.75
2022-12-05T15:01:14.915Z,16.00
2022-12-05T15:04:07.385Z,17.75
2022-12-05T15:06:45.166Z,19.75
2022-12-05T15:09:37.656Z,15.00
2022-12-05T15:12:16.758Z,15.75
2022-12-05T15:14:57.130Z,14.50
2022-12-05T15:17:34.595Z,14.75
2022-12-05T15:20:14.554Z,10.25
2022-12-05T15:22:41.727Z,14.75
2022-12-05T15:25:31.863Z,16.00
2022-12-05T15:28:06.720Z,13.25
2022-12-05T15:30:38.583Z,13.25
2022-12-05T15:33:12.400Z,14.25
2022-12-05T15:35:41.271Z,30.00
2022-12-05T15:38:27.309Z,17.00
2022-12-05T15:40:55.162Z,22.00
2022-12-05T15:43:30.535Z,18.25
2022-12-05T15:46:09.021Z,20.75
2022-12-05T15:48:35.987Z,19.25
2022-12-05T15:51:03.537Z,20.25
2022-12-05T15:53:37.038Z,23.00
2022-12-05T15:56:14.048Z,24.50
2022-12-05T15:58:48.409Z,22.75
2022-12-05T16:01:20.438Z,24.50
2022-12-05T16:03:54.460Z,21.75
2022-12-05T16:06:32.388Z,22.75
2022-12-05T16:09:08.757Z,24.00
2022-12-05T16:11:39.407Z,23.00
2022-12-05T16:14:08.466Z,20.50
2022-12-05T16:16:38.754Z,20.00
2022-12-05T16:19:15.471Z,20.50
2022-12-05T16:21:45.685Z,20.25
2022-12-05T16:24:19.697Z,15.50
2022-12-05T16:26:58.838Z,20.75
2022-12-05T16:29:30.081Z,23.00
2022-12-05T16:31:59.498Z,25.50
2022-12-05T16:34:29.584Z,25.00
2022-12-05T16:36:57.606Z,23.50
2022-12-05T16:39:27.840Z,23.75
2022-12-05T16:41:55.549Z,22.75
2022-12-05T16:45:01.075Z,23.25
2022-12-05T16:48:00.584Z,18.00
2022-12-05T16:50:32.651Z,23.50
2022-12-05T16:53:16.178Z,23.00
2022-12-05T16:55:45.098Z,25.25
2022-12-05T16:58:21.688Z,26.25
2022-12-05T17:00:50.765Z,21.25
2022-12-05T17:03:33.908Z,26.25
2022-12-05T17:06:01.645Z,23.75
2022-12-05T17:08:28.546Z,20.00
2022-12-05T17:10:57.024Z,21.00
2022-12-05T17:13:23.786Z,22.50
2022-12-05T17:15:52.003Z,21.00
2022-12-05T17:18:23.220Z,21.00
2022-12-05T17:20:57.334Z,20.75
2022-12-05T17:23:24.153Z,18.75
2022-12-05T17:25:53.576Z,23.75
2022-12-05T17:28:21.152Z,30.33
2022-12-05T17:30:48.320Z,32.33
2022-12-05T17:33:18.278Z,35.00
2022-12-05T17:35:45.807Z,33.67
2022-12-05T17:38:12.635Z,31.00
2022-12-05T17:40:40.173Z,31.00
2022-12-05T17:43:07.121Z,29.25
2022-12-05T17:45:33.866Z,29.50
2022-12-05T17:48:00.953Z,29.00
2022-12-05T17:50:29.358Z,32.00
2022-12-05T17:52:58.884Z,28.75
2022-12-05T17:55:29.461Z,28.75
2022-12-05T17:57:56.530Z,27.00
2022-12-05T18:00:24.978Z,26.00
2022-12-05T18:02:52.679Z,23.25
2022-12-05T18:05:19.972Z,24.25
2022-12-05T18:07:48.615Z,24.25
2022-12-05T18:10:20.907Z,28.33
2022-12-05T18:12:49.288Z,27.75
2022-12-05T18:15:17.144Z,24.75
2022-12-05T18:17:44.671Z,25.75
2022-12-05T18:20:15.463Z,27.00
2022-12-05T18:22:43.904Z,26.25
2022-12-05T18:25:12.195Z,24.00
2022-12-05T18:27:38.990Z,26.25
2022-12-05T18:30:07.790Z,22.25
2022-12-05T18:32:34.699Z,23.75
2022-12-05T18:35:02.140Z,24.00
2022-12-05T18:37:29.356Z,24.25
2022-12-05T18:39:56.524Z,26.50
2022-12-05T18:42:24.809Z,25.25
2022-12-05T18:44:51.633Z,25.00
2022-12-05T18:47:19.027Z,23.25
2022-12-05T18:49:46.072Z,26.50
2022-12-05T18:52:13.361Z,24.00
2022-12-05T18:54:40.262Z,24.25
2022-12-05T18:57:07.117Z,25.00
2022-12-05T18:59:35.553Z,27.50
2022-12-05T19:02:03.258Z,29.00
2022-12-05T19:04:30.722Z,35.00
2022-12-05T19:07:00.198Z,30.00
2022-12-05T19:09:30.520Z,34.33
2022-12-05T19:11:59.014Z,25.67
2022-12-05T19:14:28.186Z,26.67
2022-12-05T19:17:00.242Z,28.67
2022-12-05T19:19:29.377Z,26.00
2022-12-05T19:21:56.175Z,27.33
2022-12-05T19:24:23.543Z,26.25
2022-12-05T19:26:50.319Z,26.00
2022-12-05T19:29:17.526Z,37.00
2022-12-05T19:31:45.798Z,35.00
2022-12-05T19:34:14.223Z,37.67
2022-12-05T19:36:44.743Z,31.00
2022-12-05T19:39:16.733Z,34.00
2022-12-05T19:41:44.666Z,29.00
2022-12-05T19:44:12.634Z,26.50
2022-12-05T19:46:40.255Z,25.00
2022-12-05T19:49:11.094Z,24.50
2022-12-05T19:51:40.083Z,26.50
2022-12-05T19:54:08.589Z,27.33
2022-12-05T19:56:37.214Z,23.75
2022-12-05T19:59:05.971Z,27.75
2022-12-05T20:01:35.584Z,24.00
2022-12-05T20:04:07.086Z,27.50
2022-12-05T20:06:37.386Z,26.00
2022-12-05T20:09:07.782Z,28.25
2022-12-05T20:11:37.373Z,27.00
2022-12-05T20:14:04.636Z,28.00
2022-12-05T20:16:31.567Z,23.00
2022-12-05T20:18:59.155Z,24.00
2022-12-05T20:21:28.808Z,26.00
2022-12-05T20:23:56.532Z,27.00
2022-12-05T20:26:27.920Z,28.00
2022-12-05T20:28:56.402Z,27.00
2022-12-05T20:31:25.847Z,29.00
2022-12-05T20:33:54.249Z,29.00
2022-12-05T20:36:25.111Z,27.00
2022-12-05T20:38:56.080Z,27.00
2022-12-05T20:41:24.853Z,26.00
2022-12-05T20:43:55.791Z,26.50
2022-12-05T20:46:24.283Z,27.67
2022-12-05T20:48:52.431Z,28.00
2022-12-05T20:51:23.304Z,24.00
2022-12-05T20:53:51.054Z,25.00
2022-12-05T20:56:20.758Z,25.33
2022-12-05T20:58:52.036Z,26.00
2022-12-05T21:01:21.299Z,26.00
2022-12-05T21:03:50.284Z,26.67
2022-12-05T21:06:22.174Z,28.33
2022-12-05T21:08:50.328Z,30.67
2022-12-05T21:11:17.185Z,30.00
2022-12-05T21:13:44.860Z,28.50
2022-12-05T21:16:16.669Z,27.75
2022-12-05T21:18:44.789Z,26.25
2022-12-05T21:21:15.232Z,25.00
2022-12-05T21:23:42.270Z,25.75
2022-12-05T21:26:14.277Z,29.67
2022-12-05T21:28:42.952Z,26.50
2022-12-05T21:31:15.158Z,24.25
2022-12-05T21:33:46.427Z,24.25
2022-12-05T21:36:13.722Z,29.25
2022-12-05T21:38:40.746Z,28.00
2022-12-05T21:41:08.123Z,25.00
2022-12-05T21:43:36.175Z,26.00
2022-12-05T21:46:05.153Z,26.25
2022-12-05T21:48:34.465Z,28.75
2022-12-05T21:51:05.198Z,23.75
2022-12-05T21:53:32.308Z,23.00
2022-12-05T21:56:00.636Z,24.50
2022-12-05T21:58:30.317Z,26.00
2022-12-05T22:00:57.598Z,25.50
2022-12-05T22:03:24.355Z,24.75
2022-12-05T22:06:00.161Z,24.75
2022-12-05T22:08:29.161Z,24.00
2022-12-05T22:10:55.947Z,22.25
2022-12-05T22:13:22.775Z,23.50
2022-12-05T22:15:49.913Z,25.75
2022-12-05T22:18:16.677Z,24.75
2022-12-05T22:20:43.452Z,22.00
2022-12-05T22:23:16.630Z,23.00
2022-12-05T22:25:43.745Z,23.00
2022-12-05T22:28:10.454Z,23.00
2022-12-05T22:30:37.491Z,23.75
2022-12-05T22:33:04.392Z,20.00
2022-12-05T22:35:31.122Z,22.50
2022-12-05T22:37:57.927Z,22.00
2022-12-05T22:40:26.037Z,22.75
2022-12-05T22:42:53.145Z,23.00
2022-12-05T22:45:19.871Z,21.25
2022-12-05T22:47:46.669Z,21.00
2022-12-05T22:50:13.561Z,24.75
2022-12-05T22:52:40.339Z,23.75
2022-12-05T22:55:08.706Z,20.25
2022-12-05T22:57:37.008Z,19.50
2022-12-05T23:00:06.297Z,22.00
2022-12-05T23:02:33.118Z,19.50
2022-12-05T23:04:59.904Z,19.75
2022-12-05T23:07:26.865Z,20.25
2022-12-05T23:09:53.740Z,22.00
2022-12-05T23:12:20.504Z,16.50
2022-12-05T23:14:48.587Z,21.75
2022-12-05T23:17:15.334Z,22.25
2022-12-05T23:19:42.221Z,22.00
2022-12-05T23:22:08.946Z,22.00
2022-12-05T23:24:35.706Z,23.00
2022-12-05T23:27:02.500Z,24.25
2022-12-05T23:29:29.447Z,23.75
2022-12-05T23:31:57.551Z,23.00
2022-12-05T23:34:24.440Z,24.00
2022-12-05T23:36:51.202Z,25.67
2022-12-05T23:39:18.494Z,24.00
2022-12-05T23:41:45.298Z,23.00
2022-12-05T23:44:12.359Z,23.75
2022-12-05T23:46:39.231Z,22.50
2022-12-05T23:49:07.365Z,23.00
2022-12-05T23:51:34.516Z,20.50
2022-12-05T23:54:02.016Z,22.25
2022-12-05T23:56:32.357Z,22.50
2022-12-05T23:59:00.232Z,22.50
